sensor_id;sensor_type;location;lat;lon;timestamp;temperature;humidity
1359;DHT22;673;48.098;14.422;2023-05-24T00:01:25;15.10;99.90
1359;DHT22;673;48.098;14.422;2023-05-24T00:03:52;15.00;99.90
1359;DHT22;673;48.098;14.422;2023-05-24T00:06:23;15.00;99.90
1359;DHT22;673;48.098;14.422;2023-05-24T00:08:50;15.00;99.90
1359;DHT22;673;48.098;14.422;2023-05-24T00:11:17;15.00;99.90
1359;DHT22;673;48.098;14.422;2023-05-24T00:13:45;15.00;99.90
1359;DHT22;673;48.098;14.422;2023-05-24T00:16:13;14.90;99.90
1359;DHT22;673;48.098;14.422;2023-05-24T00:18:40;14.90;99.90
1359;DHT22;673;48.098;14.422;2023-05-24T00:21:11;14.80;99.90
1359;DHT22;673;48.098;14.422;2023-05-24T00:23:39;14.80;99.90
1359;DHT22;673;48.098;14.422;2023-05-24T00:26:07;14.80;99.90
1359;DHT22;673;48.098;14.422;2023-05-24T00:28:34;14.80;99.90
1359;DHT22;673;48.098;14.422;2023-05-24T00:31:01;14.80;99.90
1359;DHT22;673;48.098;14.422;2023-05-24T00:33:30;14.80;99.90
1359;DHT22;673;48.098;14.422;2023-05-24T00:35:57;14.80;99.90
1359;DHT22;673;48.098;14.422;2023-05-24T00:38:24;14.70;99.90
1359;DHT22;673;48.098;14.422;2023-05-24T00:40:52;14.70;99.90
1359;DHT22;673;48.098;14.422;2023-05-24T00:43:21;14.70;99.90
1359;DHT22;673;48.098;14.422;2023-05-24T00:45:59;14.60;99.90
1359;DHT22;673;48.098;14.422;2023-05-24T00:48:38;14.60;99.90
1359;DHT22;673;48.098;14.422;2023-05-24T00:51:05;14.60;99.90
1359;DHT22;673;48.098;14.422;2023-05-24T00:53:33;14.60;99.90
1359;DHT22;673;48.098;14.422;2023-05-24T00:56:01;14.50;99.90
1359;DHT22;673;48.098;14.422;2023-05-24T00:58:29;14.50;99.90
1359;DHT22;673;48.098;14.422;2023-05-24T01:00:58;14.40;99.90
1359;DHT22;673;48.098;14.422;2023-05-24T01:03:26;14.40;99.90
1359;DHT22;673;48.098;14.422;2023-05-24T01:05:55;14.20;99.90
1359;DHT22;673;48.098;14.422;2023-05-24T01:08:40;14.20;99.90
1359;DHT22;673;48.098;14.422;2023-05-24T01:11:14;14.20;99.90
1359;DHT22;673;48.098;14.422;2023-05-24T01:13:47;14.20;99.90
1359;DHT22;673;48.098;14.422;2023-05-24T01:16:23;14.30;99.90
1359;DHT22;673;48.098;14.422;2023-05-24T01:18:54;14.30;99.90
1359;DHT22;673;48.098;14.422;2023-05-24T01:21:40;14.30;99.90
1359;DHT22;673;48.098;14.422;2023-05-24T01:24:17;14.40;99.90
1359;DHT22;673;48.098;14.422;2023-05-24T01:27:03;14.30;99.90
1359;DHT22;673;48.098;14.422;2023-05-24T01:29:31;14.30;99.90
1359;DHT22;673;48.098;14.422;2023-05-24T01:31:59;14.30;99.90
1359;DHT22;673;48.098;14.422;2023-05-24T01:34:26;14.30;99.90
1359;DHT22;673;48.098;14.422;2023-05-24T01:36:54;14.30;99.90
1359;DHT22;673;48.098;14.422;2023-05-24T01:39:23;14.40;99.90
1359;DHT22;673;48.098;14.422;2023-05-24T01:41:56;14.30;99.90
1359;DHT22;673;48.098;14.422;2023-05-24T01:44:32;14.30;99.90
1359;DHT22;673;48.098;14.422;2023-05-24T01:47:10;14.40;99.90
1359;DHT22;673;48.098;14.422;2023-05-24T01:49:45;14.30;99.90
1359;DHT22;673;48.098;14.422;2023-05-24T01:52:17;14.30;99.90
1359;DHT22;673;48.098;14.422;2023-05-24T01:54:51;14.20;99.90
1359;DHT22;673;48.098;14.422;2023-05-24T01:57:19;14.30;99.90
1359;DHT22;673;48.098;14.422;2023-05-24T01:59:48;14.40;99.90
1359;DHT22;673;48.098;14.422;2023-05-24T02:02:16;14.40;99.90
1359;DHT22;673;48.098;14.422;2023-05-24T02:04:43;14.30;99.90
1359;DHT22;673;48.098;14.422;2023-05-24T02:07:10;14.20;99.90
1359;DHT22;673;48.098;14.422;2023-05-24T02:09:37;14.20;99.90
1359;DHT22;673;48.098;14.422;2023-05-24T02:12:06;14.20;99.90
1359;DHT22;673;48.098;14.422;2023-05-24T02:14:33;14.30;99.90
1359;DHT22;673;48.098;14.422;2023-05-24T02:17:04;14.30;99.90
1359;DHT22;673;48.098;14.422;2023-05-24T02:19:31;14.30;99.90
1359;DHT22;673;48.098;14.422;2023-05-24T02:21:59;14.20;99.90
1359;DHT22;673;48.098;14.422;2023-05-24T02:24:26;14.20;99.90
1359;DHT22;673;48.098;14.422;2023-05-24T02:26:53;14.10;99.90
1359;DHT22;673;48.098;14.422;2023-05-24T02:29:21;14.10;99.90
1359;DHT22;673;48.098;14.422;2023-05-24T02:31:48;14.10;99.90
1359;DHT22;673;48.098;14.422;2023-05-24T02:34:22;14.10;99.90
1359;DHT22;673;48.098;14.422;2023-05-24T02:36:49;14.00;99.90
1359;DHT22;673;48.098;14.422;2023-05-24T02:39:18;14.10;99.90
1359;DHT22;673;48.098;14.422;2023-05-24T02:41:45;14.00;99.90
1359;DHT22;673;48.098;14.422;2023-05-24T02:44:12;14.10;99.90
1359;DHT22;673;48.098;14.422;2023-05-24T02:46:40;14.10;99.90
1359;DHT22;673;48.098;14.422;2023-05-24T02:49:06;14.10;99.90
1359;DHT22;673;48.098;14.422;2023-05-24T02:51:36;14.10;99.90
1359;DHT22;673;48.098;14.422;2023-05-24T02:54:03;14.00;99.90
1359;DHT22;673;48.098;14.422;2023-05-24T02:56:30;14.00;99.90
1359;DHT22;673;48.098;14.422;2023-05-24T02:58:57;14.00;99.90
1359;DHT22;673;48.098;14.422;2023-05-24T03:01:24;14.10;99.90
1359;DHT22;673;48.098;14.422;2023-05-24T03:03:51;14.00;99.90
1359;DHT22;673;48.098;14.422;2023-05-24T03:06:18;14.00;99.90
1359;DHT22;673;48.098;14.422;2023-05-24T03:08:47;14.00;99.90
1359;DHT22;673;48.098;14.422;2023-05-24T03:11:14;14.00;99.90
1359;DHT22;673;48.098;14.422;2023-05-24T03:13:41;14.10;99.90
1359;DHT22;673;48.098;14.422;2023-05-24T03:16:08;14.00;99.90
1359;DHT22;673;48.098;14.422;2023-05-24T03:18:35;14.00;99.90
1359;DHT22;673;48.098;14.422;2023-05-24T03:21:03;14.00;99.90
1359;DHT22;673;48.098;14.422;2023-05-24T03:23:30;14.00;99.90
1359;DHT22;673;48.098;14.422;2023-05-24T03:25:58;14.00;99.90
1359;DHT22;673;48.098;14.422;2023-05-24T03:28:25;14.00;99.90
1359;DHT22;673;48.098;14.422;2023-05-24T03:30:53;14.00;99.90
1359;DHT22;673;48.098;14.422;2023-05-24T03:33:20;14.00;99.90
1359;DHT22;673;48.098;14.422;2023-05-24T03:35:47;14.00;99.90
1359;DHT22;673;48.098;14.422;2023-05-24T03:38:14;14.00;99.90
1359;DHT22;673;48.098;14.422;2023-05-24T03:40:42;14.00;99.90
1359;DHT22;673;48.098;14.422;2023-05-24T03:43:11;14.00;99.90
1359;DHT22;673;48.098;14.422;2023-05-24T03:45:38;14.00;99.90
1359;DHT22;673;48.098;14.422;2023-05-24T03:48:05;14.00;99.90
1359;DHT22;673;48.098;14.422;2023-05-24T03:50:32;14.00;99.90
1359;DHT22;673;48.098;14.422;2023-05-24T03:52:59;13.90;99.90
1359;DHT22;673;48.098;14.422;2023-05-24T03:55:26;13.90;99.90
1359;DHT22;673;48.098;14.422;2023-05-24T03:57:53;14.00;99.90
1359;DHT22;673;48.098;14.422;2023-05-24T04:00:22;13.90;99.90
1359;DHT22;673;48.098;14.422;2023-05-24T04:02:49;14.00;99.90
1359;DHT22;673;48.098;14.422;2023-05-24T04:05:16;14.00;99.90
1359;DHT22;673;48.098;14.422;2023-05-24T04:07:43;14.00;99.90
1359;DHT22;673;48.098;14.422;2023-05-24T04:10:10;14.10;99.90
1359;DHT22;673;48.098;14.422;2023-05-24T04:12:39;14.10;99.90
1359;DHT22;673;48.098;14.422;2023-05-24T04:15:07;14.10;99.90
1359;DHT22;673;48.098;14.422;2023-05-24T04:17:36;14.20;99.90
1359;DHT22;673;48.098;14.422;2023-05-24T04:20:03;14.20;99.90
1359;DHT22;673;48.098;14.422;2023-05-24T04:22:31;14.20;99.90
1359;DHT22;673;48.098;14.422;2023-05-24T04:24:58;14.20;99.90
1359;DHT22;673;48.098;14.422;2023-05-24T04:27:25;14.20;99.90
1359;DHT22;673;48.098;14.422;2023-05-24T04:29:52;14.20;99.90
1359;DHT22;673;48.098;14.422;2023-05-24T04:32:19;14.20;99.90
1359;DHT22;673;48.098;14.422;2023-05-24T04:34:49;14.20;99.90
1359;DHT22;673;48.098;14.422;2023-05-24T04:37:17;14.20;99.90
1359;DHT22;673;48.098;14.422;2023-05-24T04:39:44;14.10;99.90
1359;DHT22;673;48.098;14.422;2023-05-24T04:42:11;14.10;99.90
1359;DHT22;673;48.098;14.422;2023-05-24T04:44:39;14.10;99.90
1359;DHT22;673;48.098;14.422;2023-05-24T04:47:07;14.10;99.90
1359;DHT22;673;48.098;14.422;2023-05-24T04:49:35;14.20;99.90
1359;DHT22;673;48.098;14.422;2023-05-24T04:52:04;14.20;99.90
1359;DHT22;673;48.098;14.422;2023-05-24T04:54:32;14.00;99.90
1359;DHT22;673;48.098;14.422;2023-05-24T04:56:59;13.80;99.90
1359;DHT22;673;48.098;14.422;2023-05-24T04:59:26;13.70;99.90
1359;DHT22;673;48.098;14.422;2023-05-24T05:01:53;13.60;99.90
1359;DHT22;673;48.098;14.422;2023-05-24T05:04:20;13.50;99.90
1359;DHT22;673;48.098;14.422;2023-05-24T05:06:47;13.40;99.90
1359;DHT22;673;48.098;14.422;2023-05-24T05:09:16;13.40;99.90
1359;DHT22;673;48.098;14.422;2023-05-24T05:11:45;13.40;99.90
1359;DHT22;673;48.098;14.422;2023-05-24T05:14:12;13.30;99.90
1359;DHT22;673;48.098;14.422;2023-05-24T05:16:41;13.40;99.90
1359;DHT22;673;48.098;14.422;2023-05-24T05:19:08;13.40;99.90
1359;DHT22;673;48.098;14.422;2023-05-24T05:21:35;13.40;99.90
1359;DHT22;673;48.098;14.422;2023-05-24T05:24:04;13.30;99.90
1359;DHT22;673;48.098;14.422;2023-05-24T05:26:33;13.20;99.90
1359;DHT22;673;48.098;14.422;2023-05-24T05:29:00;13.20;99.90
1359;DHT22;673;48.098;14.422;2023-05-24T05:31:28;13.20;99.90
1359;DHT22;673;48.098;14.422;2023-05-24T05:33:55;13.10;99.90
1359;DHT22;673;48.098;14.422;2023-05-24T05:36:22;13.20;99.90
1359;DHT22;673;48.098;14.422;2023-05-24T05:38:49;13.10;99.90
1359;DHT22;673;48.098;14.422;2023-05-24T05:41:16;13.00;99.90
1359;DHT22;673;48.098;14.422;2023-05-24T05:43:44;12.90;99.90
1359;DHT22;673;48.098;14.422;2023-05-24T05:46:11;12.90;99.90
1359;DHT22;673;48.098;14.422;2023-05-24T05:48:40;12.90;99.90
1359;DHT22;673;48.098;14.422;2023-05-24T05:51:07;13.00;99.90
1359;DHT22;673;48.098;14.422;2023-05-24T05:53:34;13.10;99.90
1359;DHT22;673;48.098;14.422;2023-05-24T05:56:01;13.20;99.90
1359;DHT22;673;48.098;14.422;2023-05-24T05:58:28;13.20;99.90
1359;DHT22;673;48.098;14.422;2023-05-24T06:00:57;13.30;99.90
1359;DHT22;673;48.098;14.422;2023-05-24T06:03:24;13.30;99.90
1359;DHT22;673;48.098;14.422;2023-05-24T06:05:51;13.40;99.90
1359;DHT22;673;48.098;14.422;2023-05-24T06:08:18;13.40;99.90
1359;DHT22;673;48.098;14.422;2023-05-24T06:10:45;13.40;99.90
1359;DHT22;673;48.098;14.422;2023-05-24T06:13:12;13.50;99.90
1359;DHT22;673;48.098;14.422;2023-05-24T06:15:39;13.30;99.90
1359;DHT22;673;48.098;14.422;2023-05-24T06:18:07;13.40;99.90
1359;DHT22;673;48.098;14.422;2023-05-24T06:20:34;13.30;99.90
1359;DHT22;673;48.098;14.422;2023-05-24T06:23:01;13.30;99.90
1359;DHT22;673;48.098;14.422;2023-05-24T06:25:28;13.30;99.90
1359;DHT22;673;48.098;14.422;2023-05-24T06:27:55;13.30;99.90
1359;DHT22;673;48.098;14.422;2023-05-24T06:30:22;13.40;99.90
1359;DHT22;673;48.098;14.422;2023-05-24T06:32:50;13.50;99.90
1359;DHT22;673;48.098;14.422;2023-05-24T06:35:19;13.70;99.90
1359;DHT22;673;48.098;14.422;2023-05-24T06:37:46;13.80;99.90
1359;DHT22;673;48.098;14.422;2023-05-24T06:40:13;14.00;99.90
1359;DHT22;673;48.098;14.422;2023-05-24T06:42:40;14.20;99.90
1359;DHT22;673;48.098;14.422;2023-05-24T06:45:07;14.00;99.90
1359;DHT22;673;48.098;14.422;2023-05-24T06:47:35;14.00;99.90
1359;DHT22;673;48.098;14.422;2023-05-24T06:50:02;13.70;99.90
1359;DHT22;673;48.098;14.422;2023-05-24T06:52:31;13.80;99.90
1359;DHT22;673;48.098;14.422;2023-05-24T06:54:58;13.90;99.90
1359;DHT22;673;48.098;14.422;2023-05-24T06:57:25;13.80;99.90
1359;DHT22;673;48.098;14.422;2023-05-24T06:59:52;13.90;99.90
1359;DHT22;673;48.098;14.422;2023-05-24T07:02:19;13.70;99.90
1359;DHT22;673;48.098;14.422;2023-05-24T07:04:51;13.70;99.90
1359;DHT22;673;48.098;14.422;2023-05-24T07:07:19;13.60;99.90
1359;DHT22;673;48.098;14.422;2023-05-24T07:09:48;13.80;99.90
1359;DHT22;673;48.098;14.422;2023-05-24T07:12:15;14.10;99.90
1359;DHT22;673;48.098;14.422;2023-05-24T07:14:42;14.30;99.90
1359;DHT22;673;48.098;14.422;2023-05-24T07:17:09;14.50;99.90
1359;DHT22;673;48.098;14.422;2023-05-24T07:19:36;14.60;99.90
1359;DHT22;673;48.098;14.422;2023-05-24T07:22:03;14.40;99.90
1359;DHT22;673;48.098;14.422;2023-05-24T07:24:30;14.50;99.90
1359;DHT22;673;48.098;14.422;2023-05-24T07:26:59;14.60;99.90
1359;DHT22;673;48.098;14.422;2023-05-24T07:29:26;14.60;99.90
1359;DHT22;673;48.098;14.422;2023-05-24T07:31:53;14.50;99.90
1359;DHT22;673;48.098;14.422;2023-05-24T07:34:22;14.50;99.90
1359;DHT22;673;48.098;14.422;2023-05-24T07:36:52;14.30;99.90
1359;DHT22;673;48.098;14.422;2023-05-24T07:39:19;14.20;99.90
1359;DHT22;673;48.098;14.422;2023-05-24T07:41:45;14.30;99.90
1359;DHT22;673;48.098;14.422;2023-05-24T07:44:14;14.20;99.90
1359;DHT22;673;48.098;14.422;2023-05-24T07:46:41;14.40;99.90
1359;DHT22;673;48.098;14.422;2023-05-24T07:49:08;14.30;99.90
1359;DHT22;673;48.098;14.422;2023-05-24T07:51:35;14.50;99.90
1359;DHT22;673;48.098;14.422;2023-05-24T07:54:02;14.30;99.90
1359;DHT22;673;48.098;14.422;2023-05-24T07:56:30;14.50;99.90
1359;DHT22;673;48.098;14.422;2023-05-24T07:58:57;14.30;99.90
1359;DHT22;673;48.098;14.422;2023-05-24T08:01:30;14.50;99.90
1359;DHT22;673;48.098;14.422;2023-05-24T08:03:58;14.50;99.90
1359;DHT22;673;48.098;14.422;2023-05-24T08:06:25;14.70;99.90
1359;DHT22;673;48.098;14.422;2023-05-24T08:08:53;15.10;99.90
1359;DHT22;673;48.098;14.422;2023-05-24T08:11:20;15.40;99.90
1359;DHT22;673;48.098;14.422;2023-05-24T08:13:47;15.60;99.90
1359;DHT22;673;48.098;14.422;2023-05-24T08:16:14;15.80;99.90
1359;DHT22;673;48.098;14.422;2023-05-24T08:18:43;15.70;99.90
1359;DHT22;673;48.098;14.422;2023-05-24T08:21:10;16.00;99.90
1359;DHT22;673;48.098;14.422;2023-05-24T08:23:37;16.70;99.90
1359;DHT22;673;48.098;14.422;2023-05-24T08:26:04;16.80;99.90
1359;DHT22;673;48.098;14.422;2023-05-24T08:28:31;17.10;99.90
1359;DHT22;673;48.098;14.422;2023-05-24T08:30:58;17.00;99.90
1359;DHT22;673;48.098;14.422;2023-05-24T08:33:26;16.70;99.90
1359;DHT22;673;48.098;14.422;2023-05-24T08:35:55;16.90;99.90
1359;DHT22;673;48.098;14.422;2023-05-24T08:38:21;17.10;99.90
1359;DHT22;673;48.098;14.422;2023-05-24T08:40:49;17.00;99.90
1359;DHT22;673;48.098;14.422;2023-05-24T08:43:16;17.40;99.90
1359;DHT22;673;48.098;14.422;2023-05-24T08:45:44;17.90;99.90
1359;DHT22;673;48.098;14.422;2023-05-24T08:48:11;18.50;99.90
1359;DHT22;673;48.098;14.422;2023-05-24T08:50:39;19.50;99.90
1359;DHT22;673;48.098;14.422;2023-05-24T08:53:09;19.70;99.90
1359;DHT22;673;48.098;14.422;2023-05-24T08:55:37;19.30;99.90
1359;DHT22;673;48.098;14.422;2023-05-24T08:58:05;18.90;99.90
1359;DHT22;673;48.098;14.422;2023-05-24T09:00:32;18.40;99.90
1359;DHT22;673;48.098;14.422;2023-05-24T09:03:00;18.30;99.90
1359;DHT22;673;48.098;14.422;2023-05-24T09:05:28;18.60;99.90
1359;DHT22;673;48.098;14.422;2023-05-24T09:07:58;18.60;99.90
1359;DHT22;673;48.098;14.422;2023-05-24T09:10:28;19.00;99.90
1359;DHT22;673;48.098;14.422;2023-05-24T09:12:56;18.70;99.90
1359;DHT22;673;48.098;14.422;2023-05-24T09:15:23;18.40;99.90
1359;DHT22;673;48.098;14.422;2023-05-24T09:17:50;18.60;99.90
1359;DHT22;673;48.098;14.422;2023-05-24T09:20:19;18.70;99.90
1359;DHT22;673;48.098;14.422;2023-05-24T09:22:51;19.40;99.90
1359;DHT22;673;48.098;14.422;2023-05-24T09:25:19;20.00;99.90
1359;DHT22;673;48.098;14.422;2023-05-24T09:27:50;19.40;99.90
1359;DHT22;673;48.098;14.422;2023-05-24T09:30:18;19.50;99.90
1359;DHT22;673;48.098;14.422;2023-05-24T09:32:55;19.40;99.90
1359;DHT22;673;48.098;14.422;2023-05-24T09:35:23;19.20;99.90
1359;DHT22;673;48.098;14.422;2023-05-24T09:37:53;19.60;99.90
1359;DHT22;673;48.098;14.422;2023-05-24T09:40:22;19.50;99.90
1359;DHT22;673;48.098;14.422;2023-05-24T09:43:01;19.80;99.90
1359;DHT22;673;48.098;14.422;2023-05-24T09:45:28;19.70;99.90
1359;DHT22;673;48.098;14.422;2023-05-24T09:47:56;19.90;99.90
1359;DHT22;673;48.098;14.422;2023-05-24T09:50:25;20.20;99.90
1359;DHT22;673;48.098;14.422;2023-05-24T09:52:52;20.70;99.90
1359;DHT22;673;48.098;14.422;2023-05-24T09:55:21;20.50;99.90
1359;DHT22;673;48.098;14.422;2023-05-24T09:57:52;20.40;99.90
1359;DHT22;673;48.098;14.422;2023-05-24T10:00:27;20.40;99.90
1359;DHT22;673;48.098;14.422;2023-05-24T10:03:02;20.30;99.90
1359;DHT22;673;48.098;14.422;2023-05-24T10:05:31;20.40;99.90
1359;DHT22;673;48.098;14.422;2023-05-24T10:07:59;20.60;99.90
1359;DHT22;673;48.098;14.422;2023-05-24T10:10:27;20.40;99.90
1359;DHT22;673;48.098;14.422;2023-05-24T10:12:57;20.10;99.90
1359;DHT22;673;48.098;14.422;2023-05-24T10:15:25;20.60;99.90
1359;DHT22;673;48.098;14.422;2023-05-24T10:17:52;20.60;98.70
1359;DHT22;673;48.098;14.422;2023-05-24T10:20:19;20.70;99.60
1359;DHT22;673;48.098;14.422;2023-05-24T10:22:51;20.30;99.60
1359;DHT22;673;48.098;14.422;2023-05-24T10:25:20;20.30;99.80
1359;DHT22;673;48.098;14.422;2023-05-24T10:27:51;20.40;99.90
1359;DHT22;673;48.098;14.422;2023-05-24T10:30:25;20.20;98.40
1359;DHT22;673;48.098;14.422;2023-05-24T10:32:54;20.90;99.70
1359;DHT22;673;48.098;14.422;2023-05-24T10:35:23;21.20;98.30
1359;DHT22;673;48.098;14.422;2023-05-24T10:37:51;21.30;97.60
1359;DHT22;673;48.098;14.422;2023-05-24T10:40:19;21.40;97.10
1359;DHT22;673;48.098;14.422;2023-05-24T10:42:47;21.70;95.20
1359;DHT22;673;48.098;14.422;2023-05-24T10:45:31;21.90;95.20
1359;DHT22;673;48.098;14.422;2023-05-24T10:48:01;21.10;97.90
1359;DHT22;673;48.098;14.422;2023-05-24T10:50:33;21.70;99.90
1359;DHT22;673;48.098;14.422;2023-05-24T10:53:19;22.30;97.60
1359;DHT22;673;48.098;14.422;2023-05-24T10:55:53;22.60;94.30
1359;DHT22;673;48.098;14.422;2023-05-24T10:58:25;22.70;95.50
1359;DHT22;673;48.098;14.422;2023-05-24T11:00:56;23.10;95.50
1359;DHT22;673;48.098;14.422;2023-05-24T11:03:23;23.10;94.20
1359;DHT22;673;48.098;14.422;2023-05-24T11:05:52;23.20;93.00
1359;DHT22;673;48.098;14.422;2023-05-24T11:08:23;22.90;95.10
1359;DHT22;673;48.098;14.422;2023-05-24T11:11:11;22.60;93.60
1359;DHT22;673;48.098;14.422;2023-05-24T11:13:38;22.70;92.00
1359;DHT22;673;48.098;14.422;2023-05-24T11:16:07;22.50;91.20
1359;DHT22;673;48.098;14.422;2023-05-24T11:18:35;22.70;91.50
1359;DHT22;673;48.098;14.422;2023-05-24T11:21:05;22.30;92.10
1359;DHT22;673;48.098;14.422;2023-05-24T11:23:32;21.80;92.10
1359;DHT22;673;48.098;14.422;2023-05-24T11:26:00;21.80;90.40
1359;DHT22;673;48.098;14.422;2023-05-24T11:28:27;21.90;91.70
1359;DHT22;673;48.098;14.422;2023-05-24T11:30:54;22.00;87.30
1359;DHT22;673;48.098;14.422;2023-05-24T11:33:23;22.10;87.20
1359;DHT22;673;48.098;14.422;2023-05-24T11:35:52;21.90;85.60
1359;DHT22;673;48.098;14.422;2023-05-24T11:38:20;21.90;84.10
1359;DHT22;673;48.098;14.422;2023-05-24T11:40:48;21.60;87.50
1359;DHT22;673;48.098;14.422;2023-05-24T11:43:17;21.60;91.60
1359;DHT22;673;48.098;14.422;2023-05-24T11:45:45;21.80;88.60
1359;DHT22;673;48.098;14.422;2023-05-24T11:48:14;22.10;87.20
1359;DHT22;673;48.098;14.422;2023-05-24T11:50:44;22.50;87.40
1359;DHT22;673;48.098;14.422;2023-05-24T11:53:12;22.20;90.50
1359;DHT22;673;48.098;14.422;2023-05-24T11:55:40;21.50;91.90
1359;DHT22;673;48.098;14.422;2023-05-24T11:58:13;20.90;91.60
1359;DHT22;673;48.098;14.422;2023-05-24T12:00:46;21.00;93.00
1359;DHT22;673;48.098;14.422;2023-05-24T12:03:13;20.90;94.50
1359;DHT22;673;48.098;14.422;2023-05-24T12:05:43;20.80;94.20
1359;DHT22;673;48.098;14.422;2023-05-24T12:08:11;20.80;96.30
1359;DHT22;673;48.098;14.422;2023-05-24T12:10:41;21.20;95.70
1359;DHT22;673;48.098;14.422;2023-05-24T12:13:19;21.40;93.20
1359;DHT22;673;48.098;14.422;2023-05-24T12:15:49;21.50;91.20
1359;DHT22;673;48.098;14.422;2023-05-24T12:18:17;22.00;92.10
1359;DHT22;673;48.098;14.422;2023-05-24T12:20:47;21.90;94.50
1359;DHT22;673;48.098;14.422;2023-05-24T12:23:14;21.70;92.80
1359;DHT22;673;48.098;14.422;2023-05-24T12:25:41;21.20;92.10
1359;DHT22;673;48.098;14.422;2023-05-24T12:28:09;21.20;92.50
1359;DHT22;673;48.098;14.422;2023-05-24T12:30:37;20.70;94.60
1359;DHT22;673;48.098;14.422;2023-05-24T12:33:08;20.00;97.20
1359;DHT22;673;48.098;14.422;2023-05-24T12:35:36;19.80;97.90
1359;DHT22;673;48.098;14.422;2023-05-24T12:38:07;19.60;97.70
1359;DHT22;673;48.098;14.422;2023-05-24T12:40:35;19.10;99.20
1359;DHT22;673;48.098;14.422;2023-05-24T12:43:03;18.90;99.10
1359;DHT22;673;48.098;14.422;2023-05-24T12:45:30;18.70;99.90
1359;DHT22;673;48.098;14.422;2023-05-24T12:47:58;18.70;99.90
1359;DHT22;673;48.098;14.422;2023-05-24T12:50:27;18.70;99.90
1359;DHT22;673;48.098;14.422;2023-05-24T12:52:55;19.00;99.90
1359;DHT22;673;48.098;14.422;2023-05-24T12:55:24;19.00;99.90
1359;DHT22;673;48.098;14.422;2023-05-24T12:57:52;19.40;99.90
1359;DHT22;673;48.098;14.422;2023-05-24T13:00:21;19.20;99.10
1359;DHT22;673;48.098;14.422;2023-05-24T13:02:49;19.20;99.70
1359;DHT22;673;48.098;14.422;2023-05-24T13:05:19;19.00;99.90
1359;DHT22;673;48.098;14.422;2023-05-24T13:07:46;18.90;99.90
1359;DHT22;673;48.098;14.422;2023-05-24T13:10:13;19.00;99.60
1359;DHT22;673;48.098;14.422;2023-05-24T13:12:41;19.20;99.80
1359;DHT22;673;48.098;14.422;2023-05-24T13:15:09;19.20;99.90
1359;DHT22;673;48.098;14.422;2023-05-24T13:17:36;19.40;99.60
1359;DHT22;673;48.098;14.422;2023-05-24T13:20:04;19.60;99.10
1359;DHT22;673;48.098;14.422;2023-05-24T13:22:33;19.10;99.60
1359;DHT22;673;48.098;14.422;2023-05-24T13:25:00;19.20;99.20
1359;DHT22;673;48.098;14.422;2023-05-24T13:27:27;19.60;99.50
1359;DHT22;673;48.098;14.422;2023-05-24T13:29:56;19.50;99.00
1359;DHT22;673;48.098;14.422;2023-05-24T13:32:23;19.50;99.90
1359;DHT22;673;48.098;14.422;2023-05-24T13:34:50;19.30;99.60
1359;DHT22;673;48.098;14.422;2023-05-24T13:37:17;19.50;99.30
1359;DHT22;673;48.098;14.422;2023-05-24T13:39:45;19.70;98.50
1359;DHT22;673;48.098;14.422;2023-05-24T13:42:12;19.70;98.00
1359;DHT22;673;48.098;14.422;2023-05-24T13:44:39;20.20;98.20
1359;DHT22;673;48.098;14.422;2023-05-24T13:47:08;20.10;97.70
1359;DHT22;673;48.098;14.422;2023-05-24T13:49:35;20.50;99.00
1359;DHT22;673;48.098;14.422;2023-05-24T13:52:02;20.60;98.00
1359;DHT22;673;48.098;14.422;2023-05-24T13:54:29;20.60;98.20
1359;DHT22;673;48.098;14.422;2023-05-24T13:56:56;20.70;97.00
1359;DHT22;673;48.098;14.422;2023-05-24T13:59:24;20.50;97.40
1359;DHT22;673;48.098;14.422;2023-05-24T14:01:51;20.80;97.90
1359;DHT22;673;48.098;14.422;2023-05-24T14:04:20;20.60;96.50
1359;DHT22;673;48.098;14.422;2023-05-24T14:06:47;20.60;96.10
1359;DHT22;673;48.098;14.422;2023-05-24T14:09:14;20.80;97.10
1359;DHT22;673;48.098;14.422;2023-05-24T14:11:41;20.80;96.00
1359;DHT22;673;48.098;14.422;2023-05-24T14:14:09;20.00;96.50
1359;DHT22;673;48.098;14.422;2023-05-24T14:16:36;19.70;96.10
1359;DHT22;673;48.098;14.422;2023-05-24T14:19:04;19.70;96.60
1359;DHT22;673;48.098;14.422;2023-05-24T14:21:32;19.70;96.00
1359;DHT22;673;48.098;14.422;2023-05-24T14:23:59;19.70;96.30
1359;DHT22;673;48.098;14.422;2023-05-24T14:26:26;19.50;97.90
1359;DHT22;673;48.098;14.422;2023-05-24T14:28:53;19.40;96.70
1359;DHT22;673;48.098;14.422;2023-05-24T14:31:20;19.10;96.30
1359;DHT22;673;48.098;14.422;2023-05-24T14:33:47;18.90;98.00
1359;DHT22;673;48.098;14.422;2023-05-24T14:36:14;19.00;99.10
1359;DHT22;673;48.098;14.422;2023-05-24T14:38:42;19.20;99.10
1359;DHT22;673;48.098;14.422;2023-05-24T14:41:10;19.20;98.70
1359;DHT22;673;48.098;14.422;2023-05-24T14:43:37;19.10;98.60
1359;DHT22;673;48.098;14.422;2023-05-24T14:46:04;19.00;97.70
1359;DHT22;673;48.098;14.422;2023-05-24T14:48:31;19.10;98.70
1359;DHT22;673;48.098;14.422;2023-05-24T14:50:58;19.20;98.30
1359;DHT22;673;48.098;14.422;2023-05-24T14:53:25;19.40;98.00
1359;DHT22;673;48.098;14.422;2023-05-24T14:55:54;19.40;99.50
1359;DHT22;673;48.098;14.422;2023-05-24T14:58:20;19.40;99.90
1359;DHT22;673;48.098;14.422;2023-05-24T15:00:47;19.10;99.90
1359;DHT22;673;48.098;14.422;2023-05-24T15:03:15;19.10;99.90
1359;DHT22;673;48.098;14.422;2023-05-24T15:05:43;19.10;99.90
1359;DHT22;673;48.098;14.422;2023-05-24T15:08:09;19.20;99.90
1359;DHT22;673;48.098;14.422;2023-05-24T15:10:36;19.00;99.90
1359;DHT22;673;48.098;14.422;2023-05-24T15:13:06;18.80;99.90
1359;DHT22;673;48.098;14.422;2023-05-24T15:15:32;18.40;99.90
1359;DHT22;673;48.098;14.422;2023-05-24T15:18:00;18.30;99.90
1359;DHT22;673;48.098;14.422;2023-05-24T15:20:27;18.20;99.90
1359;DHT22;673;48.098;14.422;2023-05-24T15:22:54;18.10;99.90
1359;DHT22;673;48.098;14.422;2023-05-24T15:25:21;17.90;99.90
1359;DHT22;673;48.098;14.422;2023-05-24T15:27:48;17.60;99.90
1359;DHT22;673;48.098;14.422;2023-05-24T15:30:17;17.50;99.90
1359;DHT22;673;48.098;14.422;2023-05-24T15:32:44;17.50;99.90
1359;DHT22;673;48.098;14.422;2023-05-24T15:35:12;17.30;99.90
1359;DHT22;673;48.098;14.422;2023-05-24T15:37:39;17.30;99.90
1359;DHT22;673;48.098;14.422;2023-05-24T15:40:08;17.60;99.90
1359;DHT22;673;48.098;14.422;2023-05-24T15:42:35;17.60;99.90
1359;DHT22;673;48.098;14.422;2023-05-24T15:45:03;17.60;99.90
1359;DHT22;673;48.098;14.422;2023-05-24T15:47:31;17.40;99.90
1359;DHT22;673;48.098;14.422;2023-05-24T15:50:02;17.60;99.90
1359;DHT22;673;48.098;14.422;2023-05-24T15:52:30;17.40;99.90
1359;DHT22;673;48.098;14.422;2023-05-24T15:54:57;17.40;99.90
1359;DHT22;673;48.098;14.422;2023-05-24T15:57:24;17.40;99.90
1359;DHT22;673;48.098;14.422;2023-05-24T15:59:52;17.40;99.90
1359;DHT22;673;48.098;14.422;2023-05-24T16:02:19;17.20;99.90
1359;DHT22;673;48.098;14.422;2023-05-24T16:04:47;17.10;99.90
1359;DHT22;673;48.098;14.422;2023-05-24T16:07:14;17.10;99.90
1359;DHT22;673;48.098;14.422;2023-05-24T16:09:43;17.10;99.90